Time;durP1;ratioP1;P1;durP2;ratioP2;P2;SDS_P1;SDS_P2;PMS_P1;PMS_P2;Temp;Humidity;BMP_temperature;BMP_pressure;BME280_temperature;BME280_humidity;BME280_pressure;Samples;Min_cycle;Max_cycle;Signal;HPM_P1;HPM_P2
2021/09/04 00:00:27;;;;;;;;;20.00;18.75;;;;;24.91;47.30;100755.59;5074028;28;46897;-90
2021/09/04 00:02:52;;;;;;;;;18.25;17.25;;;;;25.07;47.61;100781.25;5105706;27;45816;-86
2021/09/04 00:05:21;;;;;;;;;18.75;17.75;;;;;25.04;47.57;100777.13;5103394;27;45670;-85
2021/09/04 00:07:46;;;;;;;;;17.00;16.00;;;;;24.94;47.57;100760.56;5093202;27;45624;-90
2021/09/04 00:10:12;;;;;;;;;19.00;18.50;;;;;24.98;47.58;100785.97;5086095;27;46238;-87
2021/09/04 00:12:37;;;;;;;;;19.00;19.00;;;;;24.85;47.50;100772.44;5096440;27;46291;-86
2021/09/04 00:15:04;;;;;;;;;16.00;15.25;;;;;24.92;48.02;100791.28;5103774;27;45672;-84
2021/09/04 00:17:29;;;;;;;;;18.25;17.50;;;;;24.90;47.76;100791.47;5087789;27;46051;-89
2021/09/04 00:19:58;;;;;;;;;18.25;17.00;;;;;24.77;47.98;100772.63;5095203;27;46299;-84
2021/09/04 00:22:23;;;;;;;;;15.50;15.00;;;;;24.72;48.01;100767.03;5092634;27;45733;-87
2021/09/04 00:24:49;;;;;;;;;18.50;17.25;;;;;24.68;47.70;100763.91;5069985;27;45742;-90
2021/09/04 00:27:14;;;;;;;;;18.25;18.00;;;;;24.65;47.97;100776.88;5094156;27;46498;-84
2021/09/04 00:29:42;;;;;;;;;16.00;16.00;;;;;24.44;47.92;100736.75;5097859;27;45745;-82
2021/09/04 00:32:08;;;;;;;;;18.00;17.00;;;;;24.70;47.90;100785.16;5098000;27;45849;-89
2021/09/04 00:34:34;;;;;;;;;17.00;17.00;;;;;24.56;48.11;100770.03;5105691;27;45620;-81
2021/09/04 00:37:00;;;;;;;;;19.00;18.00;;;;;24.46;48.23;100748.91;5089880;27;46374;-90
2021/09/04 00:39:25;;;;;;;;;22.00;19.00;;;;;24.21;48.06;100711.03;5100481;27;45671;-91
2021/09/04 00:41:53;;;;;;;;;21.50;18.00;;;;;24.17;48.15;100720.50;5093094;27;45651;-86
2021/09/04 00:44:20;;;;;;;;;17.00;16.00;;;;;24.16;48.37;100716.13;5094640;27;45751;-86
2021/09/04 00:46:46;;;;;;;;;16.25;16.00;;;;;24.24;48.67;100737.41;5099426;27;47604;-88
2021/09/04 00:49:15;;;;;;;;;18.00;17.75;;;;;24.14;48.19;100728.88;5091503;27;47023;-89
2021/09/04 00:51:41;;;;;;;;;17.50;15.00;;;;;24.04;48.65;100711.47;5087956;27;45765;-91
2021/09/04 00:54:07;;;;;;;;;19.25;19.25;;;;;24.24;48.23;100741.94;5074878;28;45690;-90
2021/09/04 00:56:36;;;;;;;;;22.75;19.50;;;;;24.03;48.30;100724.03;5102804;27;46753;-87
2021/09/04 00:59:10;;;;;;;;;21.50;18.25;;;;;23.90;48.55;100715.91;5101999;27;45673;-91
2021/09/04 01:01:35;;;;;;;;;19.25;18.75;;;;;24.03;49.30;100734.75;5104548;27;45652;-83
2021/09/04 01:04:01;;;;;;;;;18.75;17.50;;;;;24.21;49.09;100772.63;5107332;27;45810;-85
2021/09/04 01:06:27;;;;;;;;;18.25;17.25;;;;;24.08;49.27;100750.22;5078815;28;48193;-89
2021/09/04 01:08:55;;;;;;;;;17.25;17.25;;;;;24.11;48.90;100757.91;5098859;27;47328;-86
2021/09/04 01:11:24;;;;;;;;;17.50;17.25;;;;;24.17;49.14;100784.75;5105303;27;45485;-85
2021/09/04 01:13:50;;;;;;;;;20.25;19.25;;;;;23.97;49.01;100740.88;5112480;27;45707;-89
2021/09/04 01:16:15;;;;;;;;;19.50;18.75;;;;;23.70;48.87;100697.00;5112449;27;46023;-87
2021/09/04 01:18:41;;;;;;;;;20.25;18.25;;;;;23.88;49.45;100733.19;5102469;27;45678;-79
2021/09/04 01:21:08;;;;;;;;;22.00;20.75;;;;;24.05;49.27;100764.84;5096246;27;45613;-87
2021/09/04 01:23:34;;;;;;;;;21.25;20.75;;;;;24.03;49.79;100766.03;5107196;27;45104;-83
2021/09/04 01:26:06;;;;;;;;;21.25;19.75;;;;;23.97;49.49;100759.59;5089139;28;47161;-83
2021/09/04 01:28:32;;;;;;;;;23.75;20.50;;;;;23.96;50.00;100759.81;5106369;27;45690;-86
2021/09/04 01:30:57;;;;;;;;;21.50;20.75;;;;;23.93;50.01;100760.19;5098462;27;45846;-82
2021/09/04 01:33:22;;;;;;;;;22.00;21.75;;;;;23.88;49.83;100749.22;5103662;27;45181;-82
2021/09/04 01:35:48;;;;;;;;;20.50;19.50;;;;;23.88;49.56;100754.59;5112148;27;46309;-85
2021/09/04 01:38:13;;;;;;;;;22.50;20.00;;;;;23.87;50.30;100755.59;5111356;27;48250;-80
2021/09/04 01:40:39;;;;;;;;;20.00;19.50;;;;;23.76;49.57;100736.38;5081534;27;45646;-93
2021/09/04 01:43:08;;;;;;;;;19.75;19.50;;;;;23.79;50.25;100749.38;5099853;27;45968;-83
2021/09/04 01:45:33;;;;;;;;;20.50;19.75;;;;;23.77;50.17;100756.75;5120940;27;48748;-83
2021/09/04 01:47:59;;;;;;;;;17.75;17.50;;;;;23.61;49.82;100730.25;5117845;27;46399;-84
2021/09/04 01:50:25;;;;;;;;;20.75;18.50;;;;;23.76;50.40;100759.63;5084283;28;45405;-82
2021/09/04 01:52:51;;;;;;;;;21.50;19.25;;;;;23.76;50.49;100764.97;5115932;27;45185;-83
2021/09/04 01:55:18;;;;;;;;;20.50;20.25;;;;;23.64;50.13;100745.13;5082624;27;46560;-77
2021/09/04 01:57:46;;;;;;;;;20.00;19.75;;;;;23.74;50.35;100767.84;5114323;27;47300;-84
2021/09/04 02:00:14;;;;;;;;;21.50;20.00;;;;;23.43;50.55;100721.78;5105506;27;45074;-86
2021/09/04 02:02:40;;;;;;;;;20.75;18.50;;;;;23.33;50.26;100700.72;5108906;27;45937;-88
2021/09/04 02:05:10;;;;;;;;;24.25;20.00;;;;;23.55;50.20;100724.84;5101935;27;48307;-80
2021/09/04 02:07:36;;;;;;;;;18.50;18.50;;;;;23.55;50.59;100733.69;5116032;27;45923;-82
2021/09/04 02:10:03;;;;;;;;;22.00;21.00;;;;;23.43;50.17;100717.28;5082522;27;45764;-78
2021/09/04 02:12:28;;;;;;;;;18.50;16.75;;;;;23.67;50.22;100758.94;5110570;27;45436;-85
2021/09/04 02:14:54;;;;;;;;;20.00;19.25;;;;;23.60;50.88;100741.97;5108525;27;46293;-87
2021/09/04 02:17:19;;;;;;;;;21.00;21.00;;;;;23.63;50.59;100744.28;5107390;27;45866;-84
2021/09/04 02:19:47;;;;;;;;;20.50;19.50;;;;;23.62;50.31;100747.13;5105597;27;45656;-82
2021/09/04 02:22:13;;;;;;;;;19.50;17.50;;;;;23.57;50.51;100744.22;5105729;27;45873;-78
2021/09/04 02:24:40;;;;;;;;;19.25;18.50;;;;;23.30;51.02;100700.28;5098193;27;46534;-82
2021/09/04 02:27:06;;;;;;;;;20.75;20.00;;;;;23.56;51.08;100745.22;5074941;27;48572;-86
2021/09/04 02:29:32;;;;;;;;;20.75;18.25;;;;;23.55;50.44;100741.72;5094612;27;45772;-89
2021/09/04 02:31:58;;;;;;;;;23.50;19.25;;;;;23.42;50.83;100722.84;5102716;27;46000;-85
2021/09/04 02:34:23;;;;;;;;;20.25;19.00;;;;;23.28;51.18;100710.31;5099327;27;46234;-80
2021/09/04 02:36:49;;;;;;;;;18.75;18.25;;;;;23.44;51.35;100742.19;5093558;27;46687;-83
2021/09/04 02:39:14;;;;;;;;;20.25;19.00;;;;;23.42;50.97;100733.53;5102404;27;45678;-77
2021/09/04 02:41:40;;;;;;;;;18.25;17.25;;;;;23.44;50.79;100742.19;5105464;27;45947;-80
2021/09/04 02:44:05;;;;;;;;;19.75;17.75;;;;;23.44;51.37;100740.34;5103706;27;45694;-85
2021/09/04 02:46:31;;;;;;;;;20.00;19.50;;;;;23.39;51.55;100740.06;5099671;27;45630;-85
2021/09/04 02:48:56;;;;;;;;;20.00;17.75;;;;;23.41;51.39;100740.72;5102219;27;45796;-83
2021/09/04 02:51:22;;;;;;;;;17.75;16.50;;;;;23.39;51.37;100742.75;5102237;27;45674;-80
2021/09/04 02:53:47;;;;;;;;;19.75;18.50;;;;;23.33;51.07;100740.81;5103866;27;45974;-79
2021/09/04 02:56:13;;;;;;;;;20.75;18.75;;;;;23.39;50.87;100741.91;5102321;27;46969;-87
2021/09/04 02:58:38;;;;;;;;;19.25;18.25;;;;;23.38;51.34;100743.75;5101710;27;45805;-77
2021/09/04 03:01:04;;;;;;;;;23.25;21.75;;;;;23.33;50.94;100731.97;5095379;27;45552;-80
2021/09/04 03:03:30;;;;;;;;;22.75;20.25;;;;;23.33;51.33;100732.81;5097691;27;46723;-78
2021/09/04 03:05:57;;;;;;;;;19.75;19.00;;;;;23.36;51.60;100745.81;5095215;27;46179;-78
2021/09/04 03:08:23;;;;;;;;;18.75;18.00;;;;;23.34;50.85;100742.50;5089987;27;46439;-82
2021/09/04 03:10:48;;;;;;;;;24.50;21.00;;;;;23.39;51.10;100742.75;5107262;27;45722;-88
2021/09/04 03:13:14;;;;;;;;;18.25;17.50;;;;;23.26;51.46;100721.22;5109758;27;45841;-88
2021/09/04 03:15:39;;;;;;;;;20.25;19.25;;;;;23.32;51.02;100728.47;5092806;27;46843;-79
2021/09/04 03:18:11;;;;;;;;;17.50;17.25;;;;;23.40;51.44;100744.41;5109156;27;45959;-86
2021/09/04 03:20:36;;;;;;;;;23.50;19.25;;;;;23.39;51.00;100736.56;5101103;27;45696;-91
2021/09/04 03:23:05;;;;;;;;;18.75;17.75;;;;;23.27;51.84;100716.69;5092514;27;46884;-90
2021/09/04 03:25:30;;;;;;;;;21.25;19.25;;;;;23.24;51.87;100719.75;5086888;27;46059;-91
2021/09/04 03:27:56;;;;;;;;;21.75;18.00;;;;;23.29;51.19;100722.69;5092875;27;46734;-89
2021/09/04 03:30:21;;;;;;;;;17.25;15.50;;;;;23.07;51.43;100689.72;5096613;27;45825;-90
2021/09/04 03:32:53;;;;;;;;;18.50;17.50;;;;;23.33;51.67;100734.66;5066592;27;48644;-86
2021/09/04 03:35:18;;;;;;;;;18.75;18.00;;;;;23.27;51.70;100732.72;5093179;27;48201;-85
2021/09/04 03:37:44;;;;;;;;;18.75;16.50;;;;;23.30;51.54;100738.53;5097190;27;45844;-85
2021/09/04 03:40:10;;;;;;;;;18.50;16.75;;;;;23.27;51.12;100736.22;5094373;27;45754;-88
2021/09/04 03:42:35;;;;;;;;;21.25;19.00;;;;;23.22;51.45;100732.47;5088935;27;45639;-91
2021/09/04 03:45:04;;;;;;;;;20.00;17.25;;;;;23.14;51.85;100721.88;5097671;27;46708;-89
2021/09/04 03:47:30;;;;;;;;;16.25;16.00;;;;;23.23;51.49;100737.63;5096209;27;45542;-92
2021/09/04 03:53:17;;;;;;;;;17.50;17.25;;;;;23.18;51.49;100733.84;5103778;27;45671;-86
2021/09/04 03:55:42;;;;;;;;;18.00;16.75;;;;;23.16;51.40;100733.22;5104202;27;46071;-90
2021/09/04 03:58:07;;;;;;;;;19.25;18.25;;;;;23.16;51.96;100742.06;5106966;27;45676;-84
2021/09/04 04:00:33;;;;;;;;;17.25;16.50;;;;;23.10;51.98;100734.81;5107057;27;45532;-90
2021/09/04 04:02:59;;;;;;;;;18.00;18.00;;;;;23.06;51.49;100727.31;5107439;27;45577;-90
2021/09/04 04:05:27;;;;;;;;;17.50;16.25;;;;;22.80;51.53;100675.22;5087615;27;48104;-91
2021/09/04 04:07:53;;;;;;;;;17.75;16.00;;;;;22.97;51.54;100713.25;5087574;27;45584;-91
2021/09/04 04:10:18;;;;;;;;;20.50;18.75;;;;;22.94;52.19;100711.78;5106704;27;45843;-86
2021/09/04 04:12:44;;;;;;;;;16.75;16.00;;;;;22.85;51.92;100698.72;5108465;27;45526;-89
2021/09/04 04:15:10;;;;;;;;;18.75;17.25;;;;;22.90;52.35;100710.50;5108249;27;45471;-83
2021/09/04 04:17:36;;;;;;;;;17.50;17.00;;;;;22.91;52.14;100703.31;5106010;27;45295;-88
2021/09/04 04:23:23;;;;;;;;;18.50;18.25;;;;;22.89;51.88;100700.81;5106212;27;45513;-84
2021/09/04 04:25:48;;;;;;;;;20.25;18.00;;;;;23.00;51.53;100719.03;5089522;27;47306;-82
2021/09/04 04:28:13;;;;;;;;;18.25;17.75;;;;;22.99;51.62;100720.09;5109580;27;45423;-86
2021/09/04 04:30:39;;;;;;;;;17.50;17.25;;;;;22.88;51.92;100699.19;5107329;27;45518;-77
2021/09/04 04:33:04;;;;;;;;;19.00;16.75;;;;;23.01;52.21;100722.53;5108749;27;46453;-78
2021/09/04 04:38:51;;;;;;;;;17.50;16.50;;;;;22.97;52.46;100719.44;5106503;27;45718;-81
2021/09/04 04:41:18;;;;;;;;;20.00;18.50;;;;;22.96;51.56;100724.97;5102039;27;45963;-81
2021/09/04 04:43:43;;;;;;;;;19.00;17.50;;;;;22.93;52.32;100711.97;5102771;27;46300;-88
2021/09/04 04:46:09;;;;;;;;;18.75;17.50;;;;;22.90;51.76;100712.34;5080854;27;47824;-82
2021/09/04 04:48:34;;;;;;;;;18.75;17.50;;;;;22.92;51.87;100726.34;5097773;27;45691;-86
2021/09/04 04:51:00;;;;;;;;;18.50;17.00;;;;;22.90;51.88;100725.69;5100233;27;45429;-85
2021/09/04 04:53:25;;;;;;;;;16.25;16.25;;;;;22.83;52.21;100714.13;5102685;27;45728;-80
2021/09/04 04:55:51;;;;;;;;;17.50;17.50;;;;;22.86;52.07;100727.91;5101573;27;46305;-83
2021/09/04 04:58:17;;;;;;;;;18.00;15.50;;;;;22.77;52.05;100718.34;5104825;27;45620;-85
2021/09/04 05:00:43;;;;;;;;;20.25;19.00;;;;;22.72;52.18;100706.56;5103168;27;45740;-79
2021/09/04 05:03:08;;;;;;;;;19.25;17.25;;;;;22.85;52.33;100728.09;5100406;27;45678;-89
2021/09/04 05:08:55;;;;;;;;;18.50;18.00;;;;;22.82;52.51;100729.31;5103155;27;45718;-84
2021/09/04 05:11:24;;;;;;;;;20.00;17.75;;;;;22.83;52.10;100735.50;5102948;27;45603;-83
2021/09/04 05:13:49;;;;;;;;;20.50;19.25;;;;;22.85;52.62;100730.78;5103104;27;47577;-86
2021/09/04 05:16:15;;;;;;;;;20.00;19.00;;;;;22.78;52.05;100721.84;5086300;27;47393;-86
2021/09/04 05:18:43;;;;;;;;;19.00;18.00;;;;;22.79;52.55;100729.66;5103958;27;45509;-87
2021/09/04 05:21:09;;;;;;;;;17.00;16.50;;;;;22.82;52.24;100736.50;5083769;27;46060;-81
2021/09/04 05:23:34;;;;;;;;;23.75;20.75;;;;;22.78;52.71;100725.34;5103210;27;46531;-87
2021/09/04 05:26:00;;;;;;;;;20.50;18.75;;;;;22.70;52.34;100722.75;5104127;27;47040;-90
2021/09/04 05:28:25;;;;;;;;;21.25;20.00;;;;;22.85;52.02;100746.81;5106004;27;45698;-85
2021/09/04 05:30:51;;;;;;;;;22.00;19.00;;;;;22.68;51.98;100716.75;5106572;27;45561;-86
2021/09/04 05:33:16;;;;;;;;;22.00;21.00;;;;;22.78;52.18;100738.69;5105082;27;45655;-85
2021/09/04 05:39:05;;;;;;;;;19.50;17.50;;;;;22.80;52.13;100735.84;5101926;27;45644;-90
2021/09/04 05:41:33;;;;;;;;;21.25;20.50;;;;;22.79;52.89;100743.03;5101630;27;45620;-89
2021/09/04 05:43:58;;;;;;;;;18.75;18.25;;;;;22.80;52.97;100743.84;5083094;27;47448;-88
2021/09/04 05:46:24;;;;;;;;;22.25;21.25;;;;;22.78;52.78;100746.72;5101357;27;46696;-90
2021/09/04 05:48:49;;;;;;;;;20.00;18.75;;;;;22.78;53.11;100751.25;5102077;27;45677;-84
2021/09/04 05:54:36;;;;;;;;;19.25;17.75;;;;;22.56;52.67;100721.72;5102705;27;45951;-86
2021/09/04 05:57:02;;;;;;;;;19.25;18.25;;;;;22.73;53.19;100758.97;5104479;27;46321;-88
2021/09/04 05:59:27;;;;;;;;;20.00;18.25;;;;;22.70;53.02;100760.13;5106854;27;45547;-83
2021/09/04 06:01:53;;;;;;;;;19.25;18.75;;;;;22.63;52.74;100748.53;5106371;27;45690;-84
2021/09/04 06:04:18;;;;;;;;;18.75;16.50;;;;;22.66;53.12;100748.16;5101806;27;45826;-88
2021/09/04 06:06:43;;;;;;;;;18.50;17.25;;;;;22.70;52.55;100764.66;5102538;27;45747;-85
2021/09/04 06:09:09;;;;;;;;;19.75;18.00;;;;;22.67;52.99;100762.34;5106064;27;45608;-88
2021/09/04 06:11:34;;;;;;;;;21.75;19.25;;;;;22.63;52.98;100753.03;5110366;27;45631;-78
2021/09/04 06:14:00;;;;;;;;;21.50;18.25;;;;;22.69;52.54;100771.84;5107353;27;45666;-80
2021/09/04 06:16:26;;;;;;;;;21.00;18.75;;;;;22.72;53.17;100771.50;5105272;27;46288;-86
2021/09/04 06:18:52;;;;;;;;;20.25;19.25;;;;;22.71;52.67;100774.31;5107852;27;45595;-83
2021/09/04 06:24:42;;;;;;;;;20.75;18.50;;;;;22.63;52.67;100761.88;5107223;27;45595;-87
2021/09/04 06:27:07;;;;;;;;;20.75;20.25;;;;;22.69;52.57;100773.66;5108326;27;45971;-84
2021/09/04 06:29:33;;;;;;;;;20.50;19.50;;;;;22.65;53.37;100767.88;5090973;27;45597;-78
2021/09/04 06:31:58;;;;;;;;;19.25;19.25;;;;;22.69;53.29;100768.31;5113708;27;45461;-84
2021/09/04 06:34:23;;;;;;;;;21.50;20.50;;;;;22.66;53.30;100766.88;5115312;27;45445;-79
2021/09/04 06:40:11;;;;;;;;;19.50;19.25;;;;;22.57;53.15;100766.09;5109412;27;45584;-84
2021/09/04 06:42:37;;;;;;;;;23.50;21.50;;;;;22.59;53.08;100771.28;5089043;27;45586;-83
2021/09/04 06:45:03;;;;;;;;;21.25;19.50;;;;;22.63;53.56;100779.75;5105440;27;47461;-85
2021/09/04 06:47:29;;;;;;;;;21.00;20.50;;;;;22.58;52.94;100777.63;5106449;27;46199;-85
2021/09/04 06:49:57;;;;;;;;;18.75;18.75;;;;;22.59;53.81;100784.63;5088279;27;45925;-87
2021/09/04 06:52:23;;;;;;;;;21.75;20.00;;;;;22.58;53.76;100780.28;5107422;27;45576;-87
2021/09/04 06:54:48;;;;;;;;;21.00;20.00;;;;;22.58;53.31;100782.97;5105827;27;45839;-82
2021/09/04 06:57:13;;;;;;;;;27.00;22.75;;;;;22.43;53.31;100758.09;5105530;27;46358;-82
2021/09/04 06:59:39;;;;;;;;;25.25;21.00;;;;;22.56;53.87;100782.34;5107214;27;45526;-82
2021/09/04 07:02:08;;;;;;;;;23.75;21.75;;;;;22.39;53.31;100749.63;5112270;27;45785;-89
2021/09/04 07:07:21;;;;;;;;;24.00;22.67;;;;;22.56;54.08;100774.31;5110972;22;74043;-82
2021/09/04 07:09:47;;;;;;;;;24.00;22.50;;;;;22.58;53.97;100783.81;5101436;22;45810;-82
2021/09/04 07:12:12;;;;;;;;;24.25;22.25;;;;;22.57;53.41;100767.94;5094205;22;45725;-80
2021/09/04 07:14:38;;;;;;;;;28.50;21.75;;;;;22.63;53.62;100779.75;5089471;27;46707;-79
2021/09/04 07:17:03;;;;;;;;;24.75;22.00;;;;;22.46;53.98;100750.53;5109753;27;46843;-77
2021/09/04 07:19:29;;;;;;;;;25.25;22.50;;;;;22.64;53.56;100768.06;5096022;27;45803;-77
2021/09/04 07:21:54;;;;;;;;;23.75;22.00;;;;;22.63;54.14;100761.88;5082039;27;46000;-81
2021/09/04 07:24:20;;;;;;;;;24.50;23.50;;;;;22.65;54.29;100759.88;5094414;27;47544;-77
2021/09/04 07:26:45;;;;;;;;;26.75;24.00;;;;;22.70;54.46;100767.31;5094936;27;46045;-78
2021/09/04 07:29:10;;;;;;;;;27.75;24.50;;;;;22.75;53.98;100773.81;5096436;27;45835;-74
2021/09/04 07:31:36;;;;;;;;;25.75;24.00;;;;;22.73;54.07;100775.81;5102351;27;45831;-77
2021/09/04 07:34:01;;;;;;;;;27.00;24.75;;;;;22.80;54.01;100783.94;5098704;27;46977;-78
2021/09/04 07:36:26;;;;;;;;;26.75;25.75;;;;;22.85;54.26;100785.03;5095983;27;45631;-77
2021/09/04 07:38:52;;;;;;;;;25.75;24.75;;;;;22.87;54.07;100782.19;5079022;27;45688;-76
2021/09/04 07:41:17;;;;;;;;;30.00;26.00;;;;;22.90;54.45;100789.84;5079602;27;45498;-77
2021/09/04 07:43:43;;;;;;;;;27.75;26.50;;;;;22.89;54.81;100790.84;5081943;27;46076;-78
2021/09/04 07:46:08;;;;;;;;;27.75;26.25;;;;;22.84;54.86;100775.38;5092979;27;46099;-77
2021/09/04 07:48:33;;;;;;;;;30.00;25.75;;;;;22.94;54.32;100794.63;5094331;27;45845;-77
2021/09/04 07:50:59;;;;;;;;;28.00;27.00;;;;;22.95;54.96;100787.44;5098451;27;47088;-78
2021/09/04 07:53:24;;;;;;;;;31.50;28.00;;;;;22.94;54.39;100785.81;5099687;27;45712;-78
2021/09/04 07:55:49;;;;;;;;;31.00;29.75;;;;;22.99;55.07;100789.56;5092541;27;46271;-74
2021/09/04 07:58:15;;;;;;;;;30.75;28.25;;;;;23.00;55.17;100785.03;5094756;27;46002;-76
2021/09/04 08:00:41;;;;;;;;;34.25;29.75;;;;;22.97;54.90;100772.06;5094087;27;45658;-77
2021/09/04 08:03:06;;;;;;;;;30.75;26.50;;;;;22.91;54.96;100768.28;5074412;27;46366;-78
2021/09/04 08:05:32;;;;;;;;;29.00;25.00;;;;;23.01;54.84;100781.34;5099770;27;46080;-80
2021/09/04 08:07:57;;;;;;;;;29.75;27.25;;;;;23.11;55.38;100795.25;5097592;27;46216;-78
2021/09/04 08:10:23;;;;;;;;;30.75;29.50;;;;;23.14;55.35;100794.06;5098681;27;45547;-77
2021/09/04 08:12:48;;;;;;;;;35.50;30.75;;;;;23.21;55.08;100795.00;5092775;27;47587;-79
2021/09/04 08:15:14;;;;;;;;;28.25;25.75;;;;;23.19;54.96;100783.66;5097962;27;46125;-78
2021/09/04 08:17:39;;;;;;;;;33.00;29.75;;;;;23.28;55.54;100791.38;5093376;27;45733;-77
2021/09/04 08:20:05;;;;;;;;;29.00;28.00;;;;;23.29;55.54;100776.97;5093372;27;45611;-79
2021/09/04 08:22:31;;;;;;;;;31.00;28.50;;;;;23.37;55.17;100787.56;5093150;27;47667;-77
2021/09/04 08:24:57;;;;;;;;;29.00;28.50;;;;;23.41;55.73;100794.22;5092753;27;46138;-78
2021/09/04 08:27:22;;;;;;;;;37.00;29.00;;;;;23.43;55.52;100789.50;5077877;27;45501;-76
2021/09/04 08:29:47;;;;;;;;;35.75;31.00;;;;;23.40;55.51;100773.81;5096346;27;45521;-78
2021/09/04 08:32:13;;;;;;;;;36.00;32.25;;;;;23.53;55.67;100796.44;5094521;27;46875;-78
2021/09/04 08:34:38;;;;;;;;;35.25;31.50;;;;;23.56;55.52;100798.72;5095206;27;46601;-77
2021/09/04 08:37:04;;;;;;;;;32.25;29.75;;;;;23.63;55.55;100805.81;5095443;27;45792;-78
2021/09/04 08:39:30;;;;;;;;;31.50;30.00;;;;;23.67;55.29;100808.94;5094128;27;45719;-77
2021/09/04 08:41:55;;;;;;;;;31.00;30.00;;;;;23.66;55.38;100812.63;5093443;27;46469;-78
2021/09/04 08:44:21;;;;;;;;;33.00;30.25;;;;;23.68;55.76;100806.06;5092495;27;47252;-76
2021/09/04 08:46:46;;;;;;;;;34.75;32.25;;;;;23.73;55.68;100810.84;5092413;27;45805;-78
2021/09/04 08:49:13;;;;;;;;;32.75;29.75;;;;;23.75;55.67;100814.97;5093017;27;45646;-78
2021/09/04 08:51:39;;;;;;;;;39.00;34.00;;;;;23.72;55.70;100811.88;5092940;27;46370;-77
2021/09/04 08:54:05;;;;;;;;;31.25;29.50;;;;;23.76;56.08;100818.50;5092352;27;46654;-77
2021/09/04 08:56:30;;;;;;;;;30.00;28.75;;;;;23.75;55.35;100808.84;5078651;27;46208;-76
2021/09/04 08:58:56;;;;;;;;;35.50;31.75;;;;;23.79;55.55;100815.44;5092644;27;46156;-77
2021/09/04 09:01:24;;;;;;;;;36.25;31.00;;;;;23.83;55.08;100819.41;5092366;27;46460;-76
2021/09/04 09:03:51;;;;;;;;;36.75;32.25;;;;;23.81;55.93;100808.88;5091244;27;46938;-79
2021/09/04 09:06:28;;;;;;;;;35.50;30.75;;;;;23.81;55.05;100811.56;5091784;27;46459;-77
2021/09/04 09:08:54;;;;;;;;;37.00;32.25;;;;;23.87;55.69;100820.66;5082643;27;45929;-79
2021/09/04 09:11:21;;;;;;;;;34.75;32.00;;;;;23.89;55.22;100831.19;5091871;27;47505;-78
2021/09/04 09:13:51;;;;;;;;;33.25;31.75;;;;;23.90;55.34;100825.66;5105038;27;46492;-77
2021/09/04 09:16:19;;;;;;;;;37.25;32.25;;;;;23.90;55.92;100825.66;5087500;27;45827;-77
2021/09/04 09:19:02;;;;;;;;;34.00;31.75;;;;;23.89;55.50;100815.13;5097094;27;46129;-77
2021/09/04 09:21:31;;;;;;;;;32.50;30.00;;;;;23.96;55.85;100832.09;5098235;27;47694;-75
2021/09/04 09:24:12;;;;;;;;;33.25;31.75;;;;;23.90;55.62;100814.94;5091877;27;46294;-79
2021/09/04 09:26:57;;;;;;;;;42.25;33.75;;;;;23.98;55.29;100825.53;5083008;27;45679;-77
2021/09/04 09:29:25;;;;;;;;;38.25;32.75;;;;;24.02;55.64;100832.13;5080249;27;45593;-79
2021/09/04 09:32:04;;;;;;;;;42.50;34.75;;;;;24.04;56.01;100834.63;5090228;27;48333;-77
2021/09/04 09:34:34;;;;;;;;;38.00;34.25;;;;;24.05;55.49;100834.47;5091761;27;46270;-79
2021/09/04 09:37:01;;;;;;;;;44.00;36.00;;;;;24.05;56.08;100841.66;5091461;27;45827;-76
2021/09/04 09:39:27;;;;;;;;;45.75;36.25;;;;;24.07;55.68;100837.78;5091709;27;46241;-77
2021/09/04 09:41:54;;;;;;;;;39.75;34.00;;;;;24.09;56.08;100846.44;5091317;27;47260;-76
2021/09/04 09:44:22;;;;;;;;;39.50;33.25;;;;;24.11;56.14;100838.22;5091760;27;46298;-77
2021/09/04 09:46:50;;;;;;;;;40.25;34.25;;;;;24.11;56.13;100831.00;5091400;27;46013;-77
2021/09/04 09:49:15;;;;;;;;;45.50;36.50;;;;;24.14;55.50;100827.94;5092140;27;45585;-79
2021/09/04 09:51:42;;;;;;;;;43.50;35.75;;;;;24.16;55.84;100825.91;5092096;27;46251;-81
2021/09/04 09:54:09;;;;;;;;;46.25;38.00;;;;;24.22;55.89;100827.84;5095470;27;45956;-77
2021/09/04 09:56:35;;;;;;;;;45.75;36.50;;;;;24.27;55.78;100832.63;5095266;27;45750;-74
2021/09/04 09:59:01;;;;;;;;;46.00;37.75;;;;;24.32;55.67;100835.56;5094426;27;46149;-78
2021/09/04 10:01:28;;;;;;;;;44.75;36.25;;;;;24.30;55.96;100824.19;5095030;27;45811;-77
2021/09/04 10:03:55;;;;;;;;;49.75;39.50;;;;;24.38;55.73;100829.44;5094433;27;46328;-76
2021/09/04 10:06:21;;;;;;;;;44.25;36.50;;;;;24.42;55.88;100819.16;5094377;27;46085;-78
2021/09/04 10:08:47;;;;;;;;;46.25;37.00;;;;;24.44;55.89;100817.13;5095117;27;45942;-77
2021/09/04 10:11:12;;;;;;;;;46.00;38.25;;;;;24.48;56.04;100813.84;5095054;27;46329;-77
2021/09/04 10:13:41;;;;;;;;;43.25;36.00;;;;;24.50;55.83;100813.66;5103871;27;46298;-76
2021/09/04 10:16:07;;;;;;;;;45.75;36.75;;;;;24.55;55.89;100811.22;5108248;27;46129;-78
2021/09/04 10:18:33;;;;;;;;;38.50;34.00;;;;;24.60;56.26;100822.19;5091032;27;45981;-77
2021/09/04 10:21:09;;;;;;;;;39.25;33.50;;;;;24.63;56.05;100814.56;5094300;27;46497;-76
2021/09/04 10:23:40;;;;;;;;;37.75;30.00;;;;;24.65;55.98;100812.53;5077198;27;47008;-81
2021/09/04 10:26:21;;;;;;;;;23.50;23.00;;;;;24.74;55.74;100815.88;5094718;27;46215;-78
2021/09/04 10:29:16;;;;;;;;;24.50;24.25;;;;;24.80;55.72;100812.44;5094687;27;45798;-76
2021/09/04 10:31:44;;;;;;;;;20.25;19.25;;;;;24.85;55.49;100809.97;5079638;27;46638;-77
2021/09/04 10:34:23;;;;;;;;;20.50;20.00;;;;;24.87;55.58;100810.63;5094352;27;47310;-79
2021/09/04 10:37:00;;;;;;;;;17.25;14.50;;;;;24.97;55.26;100812.97;5094853;27;45739;-77
2021/09/04 10:39:59;;;;;;;;;15.00;14.25;;;;;25.04;54.93;100825.41;5090149;27;45604;-79
2021/09/04 10:42:32;;;;;;;;;17.00;15.25;;;;;25.12;54.62;100820.88;5092087;27;45736;-80
2021/09/04 10:45:04;;;;;;;;;15.00;13.25;;;;;25.19;54.80;100811.03;5095739;27;47110;-81
2021/09/04 10:47:40;;;;;;;;;13.00;13.00;;;;;25.26;54.79;100806.53;5096781;27;45809;-79
2021/09/04 10:50:32;;;;;;;;;12.00;12.00;;;;;25.35;54.39;100818.72;5096382;27;45868;-75
2021/09/04 10:53:05;;;;;;;;;11.25;11.25;;;;;25.43;54.11;100815.88;5095817;27;45703;-78
2021/09/04 10:55:38;;;;;;;;;12.75;11.50;;;;;25.48;54.02;100806.19;5094644;27;45886;-76
2021/09/04 10:58:14;;;;;;;;;11.25;11.25;;;;;25.57;53.60;100809.56;5101013;27;45681;-80
2021/09/04 11:00:39;;;;;;;;;10.50;10.00;;;;;25.63;53.65;100816.81;5096852;27;45764;-75
2021/09/04 11:03:31;;;;;;;;;10.00;9.75;;;;;25.68;53.55;100817.03;5095561;27;45829;-78
2021/09/04 11:05:59;;;;;;;;;9.75;9.50;;;;;25.76;53.06;100808.78;5100615;27;46356;-79
2021/09/04 11:08:24;;;;;;;;;10.00;10.00;;;;;25.82;52.95;100805.28;5097004;27;45803;-78
2021/09/04 11:11:19;;;;;;;;;11.75;10.75;;;;;25.82;52.67;100793.72;5075697;27;45658;-77
2021/09/04 11:13:52;;;;;;;;;13.00;12.25;;;;;25.92;52.63;100804.88;5096514;27;47585;-79
2021/09/04 11:16:35;;;;;;;;;12.75;12.75;;;;;25.97;52.71;100801.56;5081004;27;47335;-79
2021/09/04 11:19:08;;;;;;;;;14.00;13.25;;;;;25.97;52.37;100793.53;5094203;27;46003;-78
2021/09/04 11:21:45;;;;;;;;;15.25;13.25;;;;;26.06;52.71;100800.38;5092761;27;45774;-81
2021/09/04 11:24:12;;;;;;;;;12.00;11.75;;;;;26.11;52.75;100801.41;5090230;27;46577;-77
2021/09/04 11:27:00;;;;;;;;;10.00;9.25;;;;;26.19;52.61;100801.19;5091573;27;47211;-77
2021/09/04 11:29:26;;;;;;;;;9.50;9.00;;;;;26.24;51.93;100795.22;5086067;27;47474;-76
2021/09/04 11:31:58;;;;;;;;;11.50;11.00;;;;;26.28;51.48;100793.81;5090427;27;45989;-75
2021/09/04 11:34:40;;;;;;;;;12.50;12.50;;;;;26.30;51.93;100797.91;5089734;27;45920;-76
2021/09/04 11:37:26;;;;;;;;;13.75;11.25;;;;;26.43;52.08;100791.72;5092185;27;45863;-76
2021/09/04 11:39:54;;;;;;;;;11.50;11.25;;;;;26.47;51.59;100792.13;5090554;27;46885;-76